Time;durP1;ratioP1;P1;durP2;ratioP2;P2;SDS_P1;SDS_P2;PMS_P1;PMS_P2;Temp;Humidity;BMP_temperature;BMP_pressure;BME280_temperature;BME280_humidity;BME280_pressure;Samples;Min_cycle;Max_cycle;Signal;HPM_P1;HPM_P2
2023/08/10 00:00:39;;;;;;;6.68;3.75;;;15.50;99.90;;;;;;5099836;28;20047;-81
2023/08/10 00:03:04;;;;;;;7.55;3.55;;;15.50;99.90;;;;;;5068848;28;20055;-82
2023/08/10 00:05:31;;;;;;;9.18;3.08;;;15.40;99.90;;;;;;5083012;28;20341;-82
2023/08/10 00:07:57;;;;;;;7.40;3.00;;;15.50;99.90;;;;;;5070414;28;20206;-82
2023/08/10 00:10:23;;;;;;;5.07;3.17;;;15.30;99.90;;;;;;5082744;28;20051;-82
2023/08/10 00:12:49;;;;;;;7.20;3.17;;;15.30;99.90;;;;;;5065538;28;20249;-83
2023/08/10 00:15:15;;;;;;;6.40;2.85;;;15.30;99.90;;;;;;5079703;28;20115;-84
2023/08/10 00:17:40;;;;;;;8.05;3.70;;;15.30;99.90;;;;;;5104344;28;20055;-84
2023/08/10 00:20:10;;;;;;;6.40;3.47;;;15.30;99.90;;;;;;5096637;28;20252;-82
2023/08/10 00:22:36;;;;;;;6.90;3.58;;;15.20;99.90;;;;;;5088723;28;20048;-82
2023/08/10 00:25:04;;;;;;;10.73;4.28;;;15.30;99.90;;;;;;5069716;28;20067;-81
2023/08/10 00:27:31;;;;;;;5.40;3.38;;;15.20;99.90;;;;;;5099964;28;20029;-81
2023/08/10 00:29:57;;;;;;;9.68;3.53;;;15.20;99.90;;;;;;5068112;28;20032;-81
2023/08/10 00:32:23;;;;;;;10.93;3.92;;;15.20;99.90;;;;;;5089416;28;20063;-82
2023/08/10 00:34:48;;;;;;;5.97;3.90;;;15.20;99.90;;;;;;5083253;28;20094;-82
2023/08/10 00:37:14;;;;;;;7.80;3.38;;;15.20;99.90;;;;;;5061137;28;20044;-82
2023/08/10 00:39:40;;;;;;;7.60;3.70;;;15.10;99.90;;;;;;5089040;28;20024;-82
2023/08/10 00:42:07;;;;;;;12.90;4.25;;;15.10;99.90;;;;;;5098618;28;20315;-81
2023/08/10 00:44:32;;;;;;;5.88;4.00;;;15.00;99.90;;;;;;5101736;28;20020;-81
2023/08/10 00:46:59;;;;;;;7.20;3.38;;;15.10;99.90;;;;;;5095086;28;20069;-82
2023/08/10 00:49:25;;;;;;;4.93;3.10;;;15.10;99.90;;;;;;5082327;28;20064;-82
2023/08/10 00:51:51;;;;;;;7.47;3.47;;;15.10;99.90;;;;;;5069715;28;20032;-81
2023/08/10 00:54:17;;;;;;;6.72;3.60;;;15.00;99.90;;;;;;5097971;28;20036;-81
2023/08/10 00:56:43;;;;;;;5.78;3.10;;;15.10;99.90;;;;;;5070332;28;20188;-82
2023/08/10 00:59:09;;;;;;;5.72;3.03;;;15.20;99.90;;;;;;5094193;28;20189;-82
2023/08/10 01:01:35;;;;;;;9.80;3.97;;;15.10;99.90;;;;;;5089746;28;20323;-82
2023/08/10 01:04:01;;;;;;;8.75;2.75;;;15.10;99.90;;;;;;5081545;28;20020;-82
2023/08/10 01:06:41;;;;;;;9.30;3.42;;;15.10;99.90;;;;;;5084257;28;20055;-81
2023/08/10 01:09:38;;;;;;;6.15;3.13;;;15.10;99.90;;;;;;5101445;28;20218;-82
2023/08/10 01:12:41;;;;;;;10.15;3.63;;;15.10;99.90;;;;;;5081038;28;20070;-81
2023/08/10 01:15:16;;;;;;;6.40;3.25;;;15.10;99.90;;;;;;5097661;28;20044;-82
2023/08/10 01:17:51;;;;;;;5.22;3.50;;;15.20;99.90;;;;;;5085081;28;20032;-82
2023/08/10 01:20:20;;;;;;;5.80;3.38;;;15.20;99.90;;;;;;5101906;28;20080;-81
2023/08/10 01:22:51;;;;;;;7.93;3.53;;;15.20;99.90;;;;;;5070017;28;20037;-82
2023/08/10 01:25:19;;;;;;;5.40;3.25;;;15.20;99.90;;;;;;5097020;28;20035;-83
2023/08/10 01:27:46;;;;;;;6.47;3.03;;;15.30;99.90;;;;;;5097902;28;20055;-81
2023/08/10 01:30:13;;;;;;;6.30;3.05;;;15.30;99.90;;;;;;5083300;28;20036;-82
2023/08/10 01:32:45;;;;;;;5.95;3.00;;;15.20;99.90;;;;;;5101684;28;20040;-81
2023/08/10 01:35:11;;;;;;;8.98;3.17;;;15.40;99.90;;;;;;5083698;28;20067;-81
2023/08/10 01:37:37;;;;;;;6.80;4.05;;;15.40;99.90;;;;;;5040057;28;20220;-82
2023/08/10 01:40:07;;;;;;;9.73;3.20;;;15.40;99.90;;;;;;5083545;28;20028;-82
2023/08/10 01:42:33;;;;;;;5.72;3.13;;;15.40;99.90;;;;;;5066172;28;20054;-81
2023/08/10 01:44:59;;;;;;;4.57;3.13;;;15.40;99.90;;;;;;5078850;28;20093;-82
2023/08/10 01:47:40;;;;;;;7.90;3.47;;;15.30;99.90;;;;;;5081214;28;20024;-81
2023/08/10 01:50:08;;;;;;;8.85;3.40;;;15.40;99.90;;;;;;5083822;28;20214;-81
2023/08/10 01:52:38;;;;;;;6.65;2.80;;;15.50;99.90;;;;;;5075411;28;20039;-81
2023/08/10 01:55:05;;;;;;;5.50;3.30;;;15.50;99.90;;;;;;5101766;28;20099;-81
2023/08/10 01:57:32;;;;;;;7.72;3.50;;;15.50;99.90;;;;;;5067815;28;20039;-81
2023/08/10 01:59:58;;;;;;;11.15;3.75;;;15.50;99.90;;;;;;5066300;28;20374;-81
2023/08/10 02:02:23;;;;;;;5.65;3.20;;;15.60;99.90;;;;;;5081432;28;20106;-82
2023/08/10 02:04:51;;;;;;;7.63;4.00;;;15.60;99.90;;;;;;5084111;28;20040;-82
2023/08/10 02:07:16;;;;;;;5.75;3.40;;;15.60;99.90;;;;;;5079178;28;20099;-83
2023/08/10 02:09:42;;;;;;;5.95;3.00;;;15.60;99.90;;;;;;5076246;28;20497;-84
2023/08/10 02:12:08;;;;;;;10.13;3.90;;;15.60;99.90;;;;;;5087199;28;20059;-84
2023/08/10 02:14:34;;;;;;;6.22;3.28;;;15.70;99.90;;;;;;5078948;28;20214;-83
2023/08/10 02:17:00;;;;;;;7.47;3.80;;;15.70;99.90;;;;;;5074505;28;20306;-82
2023/08/10 02:19:25;;;;;;;10.23;3.72;;;15.70;99.90;;;;;;5070623;28;20104;-84
2023/08/10 02:21:51;;;;;;;9.57;3.88;;;15.70;99.90;;;;;;5081245;28;20248;-83
2023/08/10 02:24:17;;;;;;;5.40;3.80;;;15.70;99.90;;;;;;5069558;28;20032;-82
2023/08/10 02:26:43;;;;;;;6.65;4.28;;;15.70;99.90;;;;;;5085511;28;20211;-82
2023/08/10 02:29:08;;;;;;;5.45;4.38;;;15.70;99.90;;;;;;5069675;28;20023;-81
2023/08/10 02:31:34;;;;;;;7.88;4.20;;;15.60;99.90;;;;;;5069982;28;20098;-83
2023/08/10 02:34:00;;;;;;;7.53;3.58;;;15.70;99.90;;;;;;5051324;28;20028;-82
2023/08/10 02:36:25;;;;;;;10.65;3.78;;;15.70;99.90;;;;;;5065125;28;20026;-83
2023/08/10 02:38:51;;;;;;;13.00;4.55;;;15.70;99.90;;;;;;5067786;28;20027;-82
2023/08/10 02:41:17;;;;;;;9.75;3.90;;;15.80;99.90;;;;;;5085198;28;20068;-82
2023/08/10 02:43:43;;;;;;;10.93;4.75;;;15.60;99.90;;;;;;5064679;28;20110;-83
2023/08/10 02:46:08;;;;;;;7.60;4.13;;;15.70;99.90;;;;;;5051065;28;20036;-82
2023/08/10 02:48:34;;;;;;;7.55;3.63;;;15.80;99.90;;;;;;5063471;28;20035;-84
2023/08/10 02:51:00;;;;;;;8.27;3.95;;;15.80;99.90;;;;;;5103167;28;20066;-84
2023/08/10 02:53:26;;;;;;;4.97;3.85;;;15.70;99.90;;;;;;5083321;28;20050;-83
2023/08/10 02:55:51;;;;;;;10.13;4.35;;;15.80;99.90;;;;;;5060926;28;20067;-84
2023/08/10 02:58:18;;;;;;;7.38;4.30;;;15.80;99.90;;;;;;5090534;28;20098;-85
2023/08/10 03:00:45;;;;;;;7.75;4.05;;;15.80;99.90;;;;;;5073007;28;20099;-83
2023/08/10 03:03:14;;;;;;;8.68;4.15;;;15.90;99.90;;;;;;5094893;28;20098;-84
2023/08/10 03:05:40;;;;;;;8.05;4.45;;;15.80;99.90;;;;;;5082045;28;20277;-84
2023/08/10 03:08:06;;;;;;;10.55;4.10;;;15.70;99.90;;;;;;5086666;28;20334;-83
2023/08/10 03:10:32;;;;;;;5.75;3.63;;;15.80;99.90;;;;;;5083452;28;20106;-83
2023/08/10 03:12:58;;;;;;;8.15;3.50;;;15.70;99.90;;;;;;5098601;28;20027;-82
2023/08/10 03:15:25;;;;;;;6.15;3.50;;;15.80;99.90;;;;;;5046496;28;20107;-86
2023/08/10 03:17:51;;;;;;;10.13;3.30;;;15.90;99.90;;;;;;5087317;28;20023;-87
2023/08/10 03:20:17;;;;;;;6.80;3.72;;;15.80;99.90;;;;;;5084567;28;20044;-82
2023/08/10 03:22:43;;;;;;;5.10;3.17;;;15.80;99.90;;;;;;5084541;28;20036;-83
2023/08/10 03:25:10;;;;;;;5.88;3.03;;;15.90;99.90;;;;;;5099548;28;20081;-85
2023/08/10 03:27:36;;;;;;;10.07;2.97;;;15.90;99.90;;;;;;5071909;28;20032;-86
2023/08/10 03:30:03;;;;;;;6.13;3.47;;;15.80;99.90;;;;;;5097734;28;20070;-85
2023/08/10 03:32:29;;;;;;;7.97;3.10;;;15.80;99.90;;;;;;5103585;28;20031;-82
2023/08/10 03:34:54;;;;;;;3.10;2.80;;;15.90;99.90;;;;;;5080325;28;20027;-82
2023/08/10 03:37:20;;;;;;;4.63;2.58;;;16.00;99.90;;;;;;5050186;28;20032;-82
2023/08/10 03:39:46;;;;;;;6.65;3.40;;;15.80;99.90;;;;;;5078622;28;20095;-82
2023/08/10 03:42:12;;;;;;;7.13;3.47;;;16.00;99.90;;;;;;5069787;28;20065;-83
2023/08/10 03:44:38;;;;;;;5.38;3.13;;;15.80;99.90;;;;;;5083432;28;20027;-83
2023/08/10 03:47:04;;;;;;;8.93;3.28;;;15.90;99.90;;;;;;5065543;28;20031;-83
2023/08/10 03:49:29;;;;;;;5.82;3.20;;;15.80;99.90;;;;;;5079031;28;20349;-82
2023/08/10 03:51:56;;;;;;;7.28;2.88;;;15.90;99.90;;;;;;5069177;28;20038;-82
2023/08/10 03:54:22;;;;;;;5.45;3.25;;;15.90;99.90;;;;;;5085693;28;20057;-83
2023/08/10 03:56:48;;;;;;;4.32;3.55;;;15.90;99.90;;;;;;5067366;28;20032;-83
2023/08/10 03:59:14;;;;;;;7.40;3.10;;;15.80;99.90;;;;;;5067287;28;20063;-82
2023/08/10 04:01:41;;;;;;;5.93;3.30;;;15.80;99.90;;;;;;5068385;28;20040;-82
2023/08/10 04:04:08;;;;;;;7.32;2.90;;;15.90;99.90;;;;;;5066213;28;20096;-83
2023/08/10 04:06:34;;;;;;;7.47;2.80;;;15.90;99.90;;;;;;5084250;28;20062;-82
2023/08/10 04:08:59;;;;;;;6.40;3.03;;;15.80;99.90;;;;;;5081548;28;20028;-82
2023/08/10 04:11:25;;;;;;;6.07;3.35;;;15.90;99.90;;;;;;5068064;28;20023;-81
2023/08/10 04:13:51;;;;;;;4.68;3.60;;;16.00;99.90;;;;;;5068154;28;20069;-82
2023/08/10 04:16:16;;;;;;;6.03;3.10;;;15.80;99.90;;;;;;5064948;28;20034;-83
2023/08/10 04:18:42;;;;;;;5.82;3.10;;;16.00;99.90;;;;;;5084189;28;20027;-84
2023/08/10 04:21:08;;;;;;;6.20;2.85;;;15.90;99.90;;;;;;5066987;28;20270;-85
2023/08/10 04:23:34;;;;;;;8.00;3.47;;;15.90;99.90;;;;;;5049771;28;20038;-83
2023/08/10 04:26:00;;;;;;;6.32;2.90;;;16.10;99.90;;;;;;5075687;28;20023;-82
2023/08/10 04:28:25;;;;;;;7.13;3.55;;;16.00;99.90;;;;;;5065979;28;20028;-82
2023/08/10 04:30:52;;;;;;;8.18;2.90;;;16.00;99.90;;;;;;5060289;28;20042;-81
2023/08/10 04:33:18;;;;;;;6.75;3.22;;;16.10;99.90;;;;;;5078988;28;20051;-82
2023/08/10 04:35:44;;;;;;;7.95;3.00;;;16.00;99.90;;;;;;5103397;28;20058;-82
2023/08/10 04:38:10;;;;;;;7.55;2.97;;;16.10;99.90;;;;;;5077735;28;20112;-82
2023/08/10 04:40:37;;;;;;;4.50;3.17;;;16.00;99.90;;;;;;5082410;28;20027;-81
2023/08/10 04:43:03;;;;;;;5.70;3.28;;;16.00;99.90;;;;;;5076183;28;20031;-85
2023/08/10 04:45:29;;;;;;;5.35;3.33;;;16.30;99.90;;;;;;5086645;28;20024;-83
2023/08/10 04:47:55;;;;;;;8.13;3.17;;;16.20;99.90;;;;;;5089505;28;20288;-83
2023/08/10 04:50:21;;;;;;;5.90;3.05;;;16.20;99.90;;;;;;5089443;28;20062;-83
2023/08/10 04:52:48;;;;;;;4.60;3.22;;;16.20;99.90;;;;;;5077466;28;20023;-83
2023/08/10 04:55:14;;;;;;;6.03;3.05;;;16.20;99.90;;;;;;5083467;28;20135;-81
2023/08/10 04:57:40;;;;;;;5.40;2.78;;;16.30;99.90;;;;;;5082521;28;20206;-82
2023/08/10 05:00:09;;;;;;;5.07;3.00;;;16.10;99.90;;;;;;5103307;28;20103;-81
2023/08/10 05:02:36;;;;;;;8.48;2.90;;;16.20;99.90;;;;;;5081487;28;20357;-81
2023/08/10 05:05:02;;;;;;;7.47;3.17;;;16.40;99.90;;;;;;5070775;28;20082;-81
2023/08/10 05:07:28;;;;;;;7.25;3.28;;;16.40;99.90;;;;;;5087546;28;20036;-82
2023/08/10 05:09:55;;;;;;;6.78;2.90;;;16.30;99.90;;;;;;5055760;28;20066;-82
2023/08/10 05:12:21;;;;;;;8.55;3.42;;;16.50;99.90;;;;;;5083316;28;20148;-81
2023/08/10 05:14:48;;;;;;;8.02;3.60;;;16.50;99.90;;;;;;5105844;28;20035;-82
2023/08/10 05:17:14;;;;;;;8.70;3.45;;;16.30;99.90;;;;;;5086130;28;20081;-83
2023/08/10 05:19:40;;;;;;;7.38;3.60;;;16.40;99.90;;;;;;5075787;28;20032;-82
2023/08/10 05:22:05;;;;;;;6.10;3.45;;;16.60;99.90;;;;;;5083852;28;21044;-82
2023/08/10 05:24:34;;;;;;;4.03;3.08;;;16.60;99.90;;;;;;5071213;28;20027;-82
2023/08/10 05:27:02;;;;;;;6.78;3.10;;;16.50;99.90;;;;;;5072055;28;20035;-83
2023/08/10 05:29:28;;;;;;;4.90;3.03;;;17.40;99.90;;;;;;5085657;28;20103;-82
2023/08/10 05:31:54;;;;;;;4.90;3.13;;;16.60;99.90;;;;;;5085337;28;20047;-83
2023/08/10 05:34:21;;;;;;;6.25;3.30;;;16.60;99.90;;;;;;5087457;28;20035;-82
2023/08/10 05:36:47;;;;;;;6.07;3.50;;;16.90;99.90;;;;;;5085503;28;20130;-83
2023/08/10 05:39:13;;;;;;;5.43;3.22;;;16.80;99.90;;;;;;5100800;28;20027;-84
2023/08/10 05:41:38;;;;;;;4.47;2.88;;;16.80;99.90;;;;;;5084064;28;20031;-84
2023/08/10 05:44:05;;;;;;;4.80;3.33;;;17.00;99.90;;;;;;5070273;28;20084;-85
2023/08/10 05:46:33;;;;;;;6.30;3.35;;;16.90;99.90;;;;;;5084921;28;20035;-82
2023/08/10 05:48:59;;;;;;;7.38;3.75;;;16.90;99.90;;;;;;5047100;28;20090;-84
2023/08/10 05:51:25;;;;;;;5.45;3.70;;;16.90;99.90;;;;;;5069576;28;20023;-82
2023/08/10 05:53:51;;;;;;;5.65;3.67;;;16.90;99.90;;;;;;5067485;28;20043;-80
2023/08/10 05:56:16;;;;;;;4.63;3.20;;;17.10;99.90;;;;;;5080925;28;20036;-86
2023/08/10 05:58:43;;;;;;;5.38;3.70;;;17.20;99.90;;;;;;5088276;28;20047;-86
2023/08/10 06:01:13;;;;;;;6.60;4.10;;;17.20;99.90;;;;;;5074519;28;20041;-86
2023/08/10 06:03:39;;;;;;;5.80;3.78;;;17.30;99.90;;;;;;5055589;28;20043;-84
2023/08/10 06:06:06;;;;;;;6.18;3.38;;;17.10;99.90;;;;;;5051995;28;20043;-85
2023/08/10 06:08:33;;;;;;;4.97;3.08;;;17.30;99.90;;;;;;5081251;28;20047;-84
2023/08/10 06:11:00;;;;;;;6.10;3.33;;;17.20;99.90;;;;;;5087087;28;20078;-83
2023/08/10 06:13:26;;;;;;;9.23;3.47;;;17.20;99.90;;;;;;5049149;28;20039;-83
2023/08/10 06:15:52;;;;;;;4.80;3.22;;;17.30;99.90;;;;;;5085812;28;20256;-82
2023/08/10 06:18:17;;;;;;;5.75;3.15;;;17.20;99.90;;;;;;5080604;28;20035;-85
2023/08/10 06:20:44;;;;;;;8.45;3.17;;;17.30;99.90;;;;;;5068099;28;20042;-86
2023/08/10 06:23:12;;;;;;;4.68;3.38;;;17.10;99.90;;;;;;5088417;28;20104;-86
2023/08/10 06:25:37;;;;;;;6.90;3.33;;;17.20;99.90;;;;;;5078708;28;20027;-83
2023/08/10 06:28:03;;;;;;;6.78;3.40;;;17.10;99.90;;;;;;5078189;28;20047;-88
2023/08/10 06:30:29;;;;;;;9.65;3.40;;;17.10;99.90;;;;;;5081202;28;20250;-85
2023/08/10 06:32:55;;;;;;;6.93;3.33;;;17.30;99.90;;;;;;5063944;28;20024;-86
2023/08/10 06:35:22;;;;;;;6.13;3.17;;;17.20;99.90;;;;;;5049314;28;20039;-87
2023/08/10 06:37:50;;;;;;;4.80;2.90;;;17.20;99.90;;;;;;5064226;28;20106;-89
2023/08/10 06:40:16;;;;;;;5.38;3.20;;;17.20;99.90;;;;;;5059395;28;20099;-85
2023/08/10 06:42:42;;;;;;;6.35;2.67;;;17.30;99.90;;;;;;5068416;28;20051;-86
2023/08/10 06:45:08;;;;;;;7.47;2.90;;;17.60;99.90;;;;;;5083525;28;20043;-85
2023/08/10 06:47:35;;;;;;;11.20;2.80;;;17.50;99.90;;;;;;5085320;28;20023;-90
2023/08/10 06:50:01;;;;;;;5.75;2.35;;;17.60;99.90;;;;;;5062693;28;20028;-86
2023/08/10 06:52:27;;;;;;;7.15;2.67;;;17.70;99.90;;;;;;5061982;28;20074;-85
2023/08/10 06:54:52;;;;;;;4.70;2.13;;;17.70;99.90;;;;;;5074172;28;20039;-86
2023/08/10 06:57:20;;;;;;;4.28;2.40;;;17.90;99.90;;;;;;5073967;28;20034;-88
2023/08/10 06:59:46;;;;;;;2.88;2.20;;;18.00;99.90;;;;;;5097621;28;20032;-89
2023/08/10 07:02:12;;;;;;;4.38;2.40;;;18.10;99.90;;;;;;5070133;28;20054;-88
2023/08/10 07:04:39;;;;;;;7.30;2.45;;;18.10;99.90;;;;;;5067197;28;20341;-84
2023/08/10 07:07:05;;;;;;;5.25;2.17;;;18.20;99.90;;;;;;5077848;28;20080;-83
2023/08/10 07:09:31;;;;;;;4.70;2.20;;;18.30;99.90;;;;;;5045253;28;20233;-87
2023/08/10 07:11:59;;;;;;;6.45;2.30;;;18.40;99.90;;;;;;5044818;28;20028;-85
2023/08/10 07:14:25;;;;;;;6.93;2.38;;;18.90;99.90;;;;;;5068406;28;20103;-88
2023/08/10 07:16:52;;;;;;;4.43;1.90;;;18.50;99.90;;;;;;5087076;28;20027;-89
2023/08/10 07:19:18;;;;;;;5.35;1.75;;;18.40;99.90;;;;;;5067172;28;20180;-84
2023/08/10 07:21:44;;;;;;;5.05;2.10;;;18.60;99.90;;;;;;5070128;28;20032;-86
2023/08/10 07:24:10;;;;;;;7.10;2.00;;;18.60;99.90;;;;;;5050945;28;20042;-84
2023/08/10 07:26:35;;;;;;;5.22;1.98;;;18.70;99.90;;;;;;5101133;28;20028;-87
2023/08/10 07:29:01;;;;;;;7.40;1.83;;;18.90;99.90;;;;;;5061297;28;20027;-87
2023/08/10 07:31:31;;;;;;;4.30;1.70;;;19.00;99.90;;;;;;5066259;28;20261;-88
2023/08/10 07:33:58;;;;;;;3.78;1.73;;;19.00;99.90;;;;;;5073154;28;20095;-87
2023/08/10 07:36:30;;;;;;;4.95;1.80;;;19.10;99.90;;;;;;5067835;28;20306;-88
2023/08/10 07:38:56;;;;;;;7.43;2.03;;;19.20;99.90;;;;;;5080733;28;20122;-84
2023/08/10 07:41:24;;;;;;;4.68;1.60;;;19.20;99.90;;;;;;5081889;28;20222;-88
2023/08/10 07:43:50;;;;;;;5.82;1.70;;;19.20;99.90;;;;;;5046574;28;20241;-89
2023/08/10 07:46:16;;;;;;;3.80;1.60;;;19.40;99.90;;;;;;5058509;28;20028;-86
2023/08/10 07:48:42;;;;;;;4.50;1.60;;;19.60;99.90;;;;;;5067381;28;20024;-86
2023/08/10 07:51:08;;;;;;;3.95;1.98;;;19.70;99.90;;;;;;5067653;28;20031;-85
2023/08/10 07:53:39;;;;;;;5.20;1.90;;;20.00;99.90;;;;;;5048535;28;20040;-87
2023/08/10 07:56:05;;;;;;;6.28;1.98;;;19.90;99.90;;;;;;5087432;28;20080;-84
2023/08/10 07:58:31;;;;;;;10.18;2.40;;;20.00;99.90;;;;;;5080932;28;20043;-86
2023/08/10 08:00:56;;;;;;;4.10;1.73;;;20.20;99.90;;;;;;5064291;28;20024;-87
2023/08/10 08:03:22;;;;;;;5.50;1.83;;;20.40;99.90;;;;;;5074970;28;20210;-86
2023/08/10 08:05:48;;;;;;;4.35;1.77;;;20.30;99.90;;;;;;5084543;28;20056;-85
2023/08/10 08:08:14;;;;;;;4.93;1.80;;;20.40;99.90;;;;;;5051565;28;20054;-85
2023/08/10 08:10:40;;;;;;;3.47;1.60;;;20.50;99.90;;;;;;5086631;28;20027;-86
2023/08/10 08:13:06;;;;;;;4.10;1.95;;;20.70;99.90;;;;;;5101158;28;20253;-88
2023/08/10 08:15:34;;;;;;;4.43;1.52;;;20.90;99.90;;;;;;5058496;28;20039;-85
2023/08/10 08:18:37;;;;;;;3.17;1.70;;;21.00;99.90;;;;;;5084265;28;20322;-84
2023/08/10 08:21:07;;;;;;;6.30;1.30;;;21.20;99.90;;;;;;5087413;28;20213;-86
2023/08/10 08:23:33;;;;;;;4.25;1.50;;;21.40;99.90;;;;;;5087531;28;20373;-86
2023/08/10 08:25:59;;;;;;;3.35;1.50;;;21.30;99.90;;;;;;5104453;28;20027;-85
2023/08/10 08:28:25;;;;;;;7.05;2.08;;;21.30;99.90;;;;;;5071702;28;20039;-86
2023/08/10 08:30:51;;;;;;;4.82;1.30;;;21.30;99.90;;;;;;5098797;28;20222;-84
2023/08/10 08:33:19;;;;;;;4.03;1.80;;;21.40;99.90;;;;;;5086817;28;20393;-84
2023/08/10 08:35:46;;;;;;;2.53;1.30;;;21.20;99.90;;;;;;5085722;28;20035;-85
2023/08/10 08:38:15;;;;;;;4.05;1.23;;;21.20;99.90;;;;;;5068484;28;20038;-90
2023/08/10 08:40:42;;;;;;;3.00;1.40;;;21.40;99.90;;;;;;5104406;28;20043;-84
2023/08/10 08:43:12;;;;;;;6.05;1.40;;;21.30;99.90;;;;;;5080267;28;20078;-84
2023/08/10 08:45:40;;;;;;;2.20;1.40;;;21.40;99.90;;;;;;5050539;28;20297;-87
2023/08/10 08:48:14;;;;;;;6.28;1.70;;;21.30;99.90;;;;;;5067694;28;20031;-84
2023/08/10 08:50:40;;;;;;;6.78;1.52;;;21.30;99.90;;;;;;5105375;28;20023;-85
2023/08/10 08:53:08;;;;;;;3.42;1.30;;;21.30;99.90;;;;;;5070185;28;20032;-86
2023/08/10 08:55:34;;;;;;;5.72;1.55;;;21.40;99.90;;;;;;5088533;28;20027;-84
2023/08/10 08:58:00;;;;;;;4.10;1.50;;;21.30;99.90;;;;;;5088574;28;20061;-83
2023/08/10 09:00:26;;;;;;;3.97;1.63;;;21.40;99.90;;;;;;5055537;28;20028;-86
2023/08/10 09:02:59;;;;;;;4.03;1.55;;;21.30;99.90;;;;;;5056179;28;20032;-86
2023/08/10 09:05:25;;;;;;;3.13;1.20;;;21.40;99.90;;;;;;5097896;28;20396;-84
2023/08/10 09:07:52;;;;;;;3.10;1.67;;;21.50;99.90;;;;;;5098052;28;20126;-84
2023/08/10 09:10:19;;;;;;;3.10;1.40;;;21.50;99.90;;;;;;5085979;28;20039;-91
2023/08/10 09:12:46;;;;;;;2.67;1.40;;;21.60;99.90;;;;;;5087039;28;20034;-84
2023/08/10 09:15:22;;;;;;;4.15;1.30;;;21.60;99.90;;;;;;5089640;28;20043;-86
2023/08/10 09:17:52;;;;;;;2.90;1.73;;;21.60;99.90;;;;;;5105455;28;20330;-84
2023/08/10 09:20:26;;;;;;;2.17;1.25;;;21.50;99.90;;;;;;5089138;28;20031;-86
2023/08/10 09:22:54;;;;;;;7.50;1.20;;;21.60;99.90;;;;;;5051003;28;20392;-83
2023/08/10 09:25:20;;;;;;;3.55;1.30;;;21.50;99.90;;;;;;5103083;28;20370;-85
2023/08/10 09:27:48;;;;;;;3.92;1.13;;;21.60;99.90;;;;;;5095685;28;20028;-87
2023/08/10 09:30:14;;;;;;;2.88;1.20;;;21.70;99.90;;;;;;5078732;28;20139;-84
2023/08/10 09:32:42;;;;;;;1.85;1.27;;;21.60;99.90;;;;;;5081888;28;20102;-84
2023/08/10 09:35:16;;;;;;;3.72;1.83;;;21.70;99.90;;;;;;5065757;28;20270;-86
2023/08/10 09:37:43;;;;;;;5.85;1.30;;;21.90;99.90;;;;;;5076363;28;20023;-83
2023/08/10 09:40:11;;;;;;;4.70;1.85;;;21.80;99.90;;;;;;5079107;28;20912;-87
2023/08/10 09:42:39;;;;;;;1.42;1.10;;;21.90;99.90;;;;;;5085842;28;20040;-89
2023/08/10 09:45:12;;;;;;;2.70;1.13;;;22.00;99.90;;;;;;5081622;28;20034;-84
2023/08/10 09:47:40;;;;;;;4.05;1.20;;;22.10;99.90;;;;;;5087823;28;20026;-87
2023/08/10 09:50:13;;;;;;;3.08;1.20;;;21.90;99.90;;;;;;5096235;28;20322;-83
2023/08/10 09:52:40;;;;;;;4.75;1.30;;;21.70;99.90;;;;;;5105049;28;20031;-85
2023/08/10 09:55:07;;;;;;;6.88;1.60;;;21.90;99.90;;;;;;5085545;28;20510;-86
2023/08/10 09:57:35;;;;;;;4.93;1.50;;;22.00;99.90;;;;;;5077313;28;20035;-88
2023/08/10 10:00:04;;;;;;;6.28;1.67;;;22.00;99.90;;;;;;5105320;28;20028;-84
2023/08/10 10:02:30;;;;;;;6.18;1.40;;;22.10;99.90;;;;;;5105042;28;20051;-85
2023/08/10 10:04:56;;;;;;;3.08;1.50;;;22.10;99.90;;;;;;5071607;28;20060;-84
2023/08/10 10:07:27;;;;;;;4.15;1.30;;;22.10;99.90;;;;;;5083273;28;20067;-85
2023/08/10 10:09:58;;;;;;;3.90;1.30;;;22.20;99.90;;;;;;5087814;28;20054;-84
2023/08/10 10:12:24;;;;;;;3.40;1.20;;;22.20;99.90;;;;;;5087466;28;20310;-85
2023/08/10 10:14:51;;;;;;;11.57;2.05;;;22.30;99.90;;;;;;5087830;28;20028;-83
2023/08/10 10:17:19;;;;;;;3.63;1.38;;;22.20;99.90;;;;;;5097062;28;20246;-84
2023/08/10 10:19:48;;;;;;;2.10;1.13;;;22.30;99.90;;;;;;5088660;28;20233;-86
2023/08/10 10:22:16;;;;;;;1.45;1.10;;;22.40;99.90;;;;;;5094035;28;20036;-86
2023/08/10 10:24:43;;;;;;;4.97;1.50;;;22.40;99.90;;;;;;5087203;28;20028;-86
2023/08/10 10:27:13;;;;;;;4.07;1.42;;;22.40;99.90;;;;;;5087946;28;20028;-84
2023/08/10 10:29:41;;;;;;;1.85;1.08;;;22.60;99.90;;;;;;5087720;28;20236;-84
2023/08/10 10:32:15;;;;;;;4.47;1.10;;;22.60;99.90;;;;;;5095807;28;20203;-90
2023/08/10 10:34:42;;;;;;;6.40;1.20;;;22.50;99.90;;;;;;5084342;28;20039;-67
2023/08/10 10:37:18;;;;;;;3.22;1.30;;;22.50;99.90;;;;;;5103404;28;20273;-67
2023/08/10 10:39:51;;;;;;;2.78;1.25;;;22.60;99.90;;;;;;5103437;28;20365;-83
2023/08/10 10:42:19;;;;;;;2.50;1.33;;;22.80;99.90;;;;;;5078934;28;20024;-83
2023/08/10 10:45:04;;;;;;;2.75;1.17;;;22.40;99.90;;;;;;5070705;28;20281;-82
2023/08/10 10:47:36;;;;;;;1.63;1.13;;;22.30;99.90;;;;;;5084279;28;20320;-81
2023/08/10 10:50:27;;;;;;;1.73;1.20;;;22.50;99.90;;;;;;5086265;28;20024;-82
2023/08/10 10:52:55;;;;;;;3.47;1.17;;;22.40;99.90;;;;;;5100466;28;20031;-83
2023/08/10 10:55:36;;;;;;;4.18;1.23;;;22.50;99.90;;;;;;5083173;28;20036;-82
2023/08/10 10:58:03;;;;;;;4.47;1.20;;;22.60;99.90;;;;;;5072880;28;20261;-81
2023/08/10 11:00:30;;;;;;;2.00;1.48;;;22.60;99.90;;;;;;5057161;28;20036;-82
2023/08/10 11:02:56;;;;;;;2.78;1.10;;;22.70;99.90;;;;;;5079296;28;20035;-82
2023/08/10 11:05:22;;;;;;;2.75;1.10;;;22.60;99.90;;;;;;5100243;28;20105;-81
2023/08/10 11:07:50;;;;;;;2.35;1.33;;;22.60;99.90;;;;;;5104088;28;20371;-82
2023/08/10 11:10:19;;;;;;;3.63;1.20;;;22.70;99.90;;;;;;5103049;28;20097;-82
2023/08/10 11:12:48;;;;;;;3.80;1.10;;;23.00;99.90;;;;;;5085142;28;20163;-82
2023/08/10 11:15:15;;;;;;;3.60;1.17;;;23.20;99.90;;;;;;5103034;28;20141;-81
2023/08/10 11:17:48;;;;;;;4.97;1.23;;;23.50;99.90;;;;;;5066690;28;20085;-82
2023/08/10 11:20:15;;;;;;;2.35;1.20;;;23.60;99.90;;;;;;5089310;28;20042;-82
2023/08/10 11:22:45;;;;;;;2.08;1.17;;;23.70;99.90;;;;;;5082424;28;21457;-81
2023/08/10 11:25:16;;;;;;;2.03;1.20;;;23.60;99.90;;;;;;5068980;28;20136;-81
2023/08/10 11:27:51;;;;;;;2.30;1.20;;;23.80;99.90;;;;;;5085539;28;20032;-81
2023/08/10 11:30:21;;;;;;;2.30;1.23;;;23.40;99.90;;;;;;5089791;28;20028;-82
2023/08/10 11:32:53;;;;;;;2.78;1.00;;;23.40;99.90;;;;;;5100808;28;20252;-81
2023/08/10 11:35:22;;;;;;;2.17;1.13;;;23.40;99.90;;;;;;5073219;28;20036;-82
2023/08/10 11:37:49;;;;;;;4.10;1.48;;;23.40;99.90;;;;;;5083023;28;20035;-81
2023/08/10 11:40:17;;;;;;;1.55;0.90;;;23.60;99.90;;;;;;5095695;28;20046;-86
2023/08/10 11:42:45;;;;;;;4.50;1.30;;;23.80;99.90;;;;;;5100329;28;20130;-83
2023/08/10 11:45:20;;;;;;;2.42;1.40;;;23.40;99.90;;;;;;5094969;28;20200;-83
2023/08/10 11:47:50;;;;;;;4.40;1.70;;;23.70;99.90;;;;;;5092740;28;20069;-85
2023/08/10 11:50:16;;;;;;;61.95;17.33;;;23.70;99.90;;;;;;5085252;28;20023;-85
2023/08/10 11:52:42;;;;;;;6.30;2.50;;;23.60;99.90;;;;;;5084466;28;20031;-84
2023/08/10 11:55:14;;;;;;;4.30;1.50;;;23.40;99.90;;;;;;5066636;28;20032;-87
2023/08/10 11:57:42;;;;;;;36.67;8.27;;;23.60;99.90;;;;;;5081061;28;20032;-85
2023/08/10 12:00:30;;;;;;;11.00;3.45;;;23.60;99.90;;;;;;5085176;28;20040;-85
2023/08/10 12:03:16;;;;;;;6.78;1.77;;;23.80;99.90;;;;;;5085243;28;20157;-85
2023/08/10 12:05:49;;;;;;;6.53;2.22;;;23.70;99.90;;;;;;5084336;28;20369;-84
2023/08/10 12:08:24;;;;;;;3.22;1.50;;;23.50;99.90;;;;;;5102194;28;20331;-84
2023/08/10 12:11:11;;;;;;;4.20;1.70;;;23.60;99.90;;;;;;5101629;28;20073;-83
2023/08/10 12:13:48;;;;;;;2.85;1.73;;;23.60;99.90;;;;;;5080708;28;20397;-85
2023/08/10 12:16:17;;;;;;;8.38;2.00;;;23.50;99.90;;;;;;5081280;28;20042;-86
2023/08/10 12:18:43;;;;;;;4.35;1.42;;;23.60;99.90;;;;;;5101597;28;20226;-84
2023/08/10 12:21:08;;;;;;;4.05;1.40;;;23.60;99.90;;;;;;5098781;28;20166;-84
2023/08/10 12:23:34;;;;;;;5.13;2.35;;;23.60;99.90;;;;;;5074761;28;20230;-79
2023/08/10 12:26:00;;;;;;;3.90;1.42;;;23.40;99.90;;;;;;5080012;28;20035;-79
2023/08/10 12:28:25;;;;;;;3.38;1.50;;;23.00;99.90;;;;;;5080111;28;20070;-79
2023/08/10 12:30:52;;;;;;;3.38;1.85;;;23.30;99.90;;;;;;5082876;28;20031;-79
2023/08/10 12:33:19;;;;;;;6.05;1.75;;;23.20;99.90;;;;;;5082814;28;20044;-79
2023/08/10 12:35:45;;;;;;;3.55;1.35;;;23.30;99.90;;;;;;5084822;28;20063;-80
2023/08/10 12:38:11;;;;;;;4.82;1.65;;;23.40;99.90;;;;;;5097337;28;20040;-79
2023/08/10 12:40:38;;;;;;;3.70;1.45;;;23.40;99.90;;;;;;5084483;28;20059;-78
2023/08/10 12:43:04;;;;;;;3.08;1.45;;;23.40;99.90;;;;;;5083365;28;20032;-81
2023/08/10 12:45:30;;;;;;;4.00;1.60;;;23.40;99.90;;;;;;5099121;28;20032;-79
2023/08/10 12:47:58;;;;;;;4.47;1.60;;;23.40;99.90;;;;;;5067779;28;20058;-81